Time;durP1;ratioP1;P1;durP2;ratioP2;P2;SDS_P1;SDS_P2;PMS_P1;PMS_P2;Temp;Humidity;BMP_temperature;BMP_pressure;BME280_temperature;BME280_humidity;BME280_pressure;Samples;Min_cycle;Max_cycle;Signal;HPM_P1;HPM_P2
2022/01/24 00:01:39;;;;;;;17.02;6.50;;;38.50;2201.60;;;;;;4900779;29;20468;-87
2022/01/24 00:04:05;;;;;;;13.82;5.50;;;38.80;2201.60;;;;;;4900320;29;20032;-83
2022/01/24 00:06:32;;;;;;;;;;;38.50;2201.60;;;;;;4917843;29;20043;-86
2022/01/24 00:08:59;;;;;;;7.22;3.72;;;38.60;2201.60;;;;;;4917010;29;19907;-83
2022/01/24 00:11:38;;;;;;;14.82;5.65;;;38.70;2201.60;;;;;;4917217;29;20044;-74
2022/01/24 00:27:07;;;;;;;10.55;4.93;;;38.70;2201.60;;;;;;4917041;29;20036;-77
2022/01/24 00:29:32;;;;;;;;;;;38.90;2201.60;;;;;;4917420;29;20032;-87
2022/01/24 00:31:58;;;;;;;13.70;4.95;;;38.70;2201.60;;;;;;4916344;29;20396;-86
2022/01/24 00:34:24;;;;;;;;;;;38.80;2201.60;;;;;;4917316;29;20042;-86
2022/01/24 00:36:51;;;;;;;13.25;5.47;;;39.00;2201.60;;;;;;4916798;29;20292;-83
2022/01/24 00:39:18;;;;;;;11.48;5.45;;;38.90;2201.60;;;;;;4916723;29;20052;-84
2022/01/24 00:47:28;;;;;;;16.33;7.63;;;39.30;2201.60;;;;;;4859219;29;20527;-87
2022/01/24 00:55:21;;;;;;;17.20;5.93;;;64.40;2201.60;;;;;;4858961;29;20048;-79
2022/01/24 00:57:47;;;;;;;13.38;6.35;;;64.40;2201.60;;;;;;4858726;29;20577;-86
2022/01/24 01:00:12;;;;;;;;;;;64.30;2201.60;;;;;;4859085;29;20128;-87
2022/01/24 01:02:38;;;;;;;13.85;5.43;;;64.40;2201.60;;;;;;4859075;29;19908;-85
2022/01/24 01:05:09;;;;;;;;;;;64.30;2201.60;;;;;;4859062;29;20049;-85
2022/01/24 01:07:52;;;;;;;11.52;5.22;;;64.30;2201.60;;;;;;4858710;29;19951;-74
2022/01/24 01:18:33;;;;;;;12.93;5.18;;;64.40;2201.60;;;;;;4900095;29;20051;-85
2022/01/24 01:23:32;;;;;;;11.40;5.63;;;64.30;2201.60;;;;;;4916781;29;20059;-84
2022/01/24 01:26:02;;;;;;;16.00;6.30;;;64.40;2201.60;;;;;;4916462;29;20024;-81
2022/01/24 01:28:29;;;;;;;15.30;6.65;;;64.40;2201.60;;;;;;4915583;29;20059;-83
2022/01/24 01:30:59;;;;;;;9.85;5.10;;;64.20;2201.60;;;;;;4899796;29;20111;-88
2022/01/24 01:33:52;;;;;;;11.68;4.93;;;64.70;2201.60;;;;;;4899350;29;20064;-88
2022/01/24 01:37:01;;;;;;;13.13;5.65;;;64.70;2201.60;;;;;;4916566;29;20077;-86
2022/01/24 01:57:53;;;;;;;23.05;6.10;;;64.30;2201.60;;;;;;4919788;29;20053;-88
2022/01/24 02:00:18;;;;;;;;;;;64.40;2201.60;;;;;;4920027;29;20572;-87
2022/01/24 02:02:44;;;;;;;14.15;6.75;;;64.40;2201.60;;;;;;4903115;29;20288;-82
2022/01/24 02:05:10;;;;;;;;;;;64.50;2201.60;;;;;;4919777;29;20389;-85
2022/01/24 02:07:48;;;;;;;15.35;5.32;;;64.30;2201.60;;;;;;4902609;29;19911;-86
2022/01/24 02:10:15;;;;;;;15.00;4.80;;;64.30;2201.60;;;;;;4919258;29;20028;-87
2022/01/24 02:12:41;;;;;;;12.25;5.28;;;64.30;2201.60;;;;;;4918138;29;20032;-84
2022/01/24 02:15:07;;;;;;;;;;;64.40;2201.60;;;;;;4919991;29;20020;-87
2022/01/24 02:17:51;;;;;;;13.15;4.88;;;64.50;2201.60;;;;;;4919072;29;19950;-84
2022/01/24 02:25:46;;;;;;;11.95;5.40;;;64.30;2201.60;;;;;;4918937;29;20039;-80
2022/01/24 02:28:13;;;;;;;13.98;5.32;;;64.50;2201.60;;;;;;4918960;29;20024;-85
2022/01/24 02:33:27;;;;;;;15.55;6.45;;;64.50;2201.60;;;;;;4879170;29;20082;-85
2022/01/24 02:35:53;;;;;;;;;;;64.40;2201.60;;;;;;4880051;29;20048;-85
2022/01/24 02:38:37;;;;;;;15.20;6.45;;;64.30;2201.60;;;;;;4879334;29;20370;-87
2022/01/24 02:49:30;;;;;;;13.20;5.97;;;64.20;2201.60;;;;;;4879558;29;20055;-85
2022/01/24 02:52:08;;;;;;;14.10;6.25;;;64.40;2201.60;;;;;;4878844;29;20041;-76
2022/01/24 02:54:35;;;;;;;13.35;5.65;;;64.30;2201.60;;;;;;4878684;29;20116;-83
2022/01/24 02:57:02;;;;;;;16.05;6.10;;;64.20;2201.60;;;;;;4879260;29;20037;-86
2022/01/24 02:59:28;;;;;;;13.57;5.95;;;64.40;2201.60;;;;;;4879348;29;20029;-82
2022/01/24 03:01:54;;;;;;;;;;;64.10;2201.60;;;;;;4879388;29;20029;-83
2022/01/24 03:04:20;;;;;;;11.32;4.93;;;64.10;2201.60;;;;;;4879311;29;19908;-88
2022/01/24 03:06:46;;;;;;;;;;;64.30;2201.60;;;;;;4879417;29;20150;-84
2022/01/24 03:09:12;;;;;;;12.20;6.10;;;64.30;2201.60;;;;;;4879107;29;19915;-84
2022/01/24 03:14:22;;;;;;;14.68;5.57;;;64.60;2201.60;;;;;;4918167;29;20043;-84
2022/01/24 03:16:48;;;;;;;10.60;5.45;;;64.40;2201.60;;;;;;4918551;29;20465;-85
2022/01/24 03:19:15;;;;;;;15.07;5.55;;;64.40;2201.60;;;;;;4917976;29;20116;-83
2022/01/24 03:21:42;;;;;;;12.95;5.85;;;64.40;2201.60;;;;;;4918259;29;20054;-79
2022/01/24 03:24:08;;;;;;;13.60;6.50;;;64.40;2201.60;;;;;;4918103;29;20059;-85
2022/01/24 03:26:34;;;;;;;;;;;64.40;2201.60;;;;;;4918425;29;20032;-80
2022/01/24 03:28:59;;;;;;;14.25;5.80;;;38.70;2201.60;;;;;;4917827;29;19929;-87
2022/01/24 03:31:25;;;;;;;;;;;64.50;2201.60;;;;;;4918261;29;20035;-75
2022/01/24 03:33:51;;;;;;;11.00;4.50;;;64.60;2201.60;;;;;;4917999;29;19907;-86
2022/01/24 03:36:16;;;;;;;;;;;64.50;2201.60;;;;;;4917802;29;20028;-84
2022/01/24 03:38:42;;;;;;;10.27;5.15;;;64.70;2201.60;;;;;;4917691;29;19919;-86
2022/01/24 03:41:08;;;;;;;;;;;64.50;2201.60;;;;;;4918128;29;20122;-85
2022/01/24 03:43:34;;;;;;;9.82;5.05;;;64.40;2201.60;;;;;;4901155;29;19942;-82
2022/01/24 03:46:24;;;;;;;11.23;4.10;;;64.40;2201.60;;;;;;4917394;29;20073;-87
2022/01/24 03:48:53;;;;;;;11.40;4.70;;;64.40;2201.60;;;;;;4917771;29;20515;-85
2022/01/24 03:51:21;;;;;;;14.40;5.63;;;64.50;2201.60;;;;;;4917638;29;20025;-83
2022/01/24 03:53:47;;;;;;;11.68;5.75;;;64.50;2201.60;;;;;;4917769;29;20028;-84
2022/01/24 03:56:13;;;;;;;11.32;5.43;;;64.30;2201.60;;;;;;4917748;29;20048;-88
2022/01/24 03:58:40;;;;;;;9.90;5.38;;;64.50;2201.60;;;;;;4917590;29;20079;-88
2022/01/24 04:01:08;;;;;;;12.35;4.95;;;64.60;2201.60;;;;;;4917638;29;20036;-87
2022/01/24 04:03:35;;;;;;;13.00;6.47;;;64.70;2201.60;;;;;;4917617;29;20086;-80
2022/01/24 04:06:00;;;;;;;16.20;5.82;;;64.70;2201.60;;;;;;4916479;29;20035;-87
2022/01/24 04:08:26;;;;;;;;;;;64.70;2201.60;;;;;;4917796;29;20028;-84
2022/01/24 04:10:55;;;;;;;16.77;6.28;;;64.80;2201.60;;;;;;4917753;29;19919;-87
2022/01/24 04:13:34;;;;;;;13.05;5.57;;;89.80;2176.00;;;;;;4900709;29;20409;-87
2022/01/24 04:18:56;;;;;;;12.70;5.97;;;89.70;2176.00;;;;;;4917364;29;20496;-85
2022/01/24 04:21:28;;;;;;;8.45;3.95;;;64.80;2201.60;;;;;;4917425;29;20033;-87
2022/01/24 04:26:30;;;;;;;10.18;5.15;;;89.60;2201.60;;;;;;4917204;29;20528;-85
2022/01/24 04:28:56;;;;;;;9.20;4.97;;;64.90;2201.60;;;;;;4917492;29;20123;-87
2022/01/24 04:31:22;;;;;;;;;;;64.90;2201.60;;;;;;4900471;29;20032;-78
2022/01/24 04:33:49;;;;;;;10.23;4.03;;;64.70;2201.60;;;;;;4900312;29;20328;-84
2022/01/24 04:36:16;;;;;;;12.07;5.30;;;64.90;2201.60;;;;;;4900414;29;20036;-82
2022/01/24 04:38:42;;;;;;;14.75;6.30;;;64.90;2201.60;;;;;;4915618;29;20066;-84
2022/01/24 04:41:17;;;;;;;11.38;5.30;;;64.90;2201.60;;;;;;4916856;29;20079;-83
2022/01/24 04:57:01;;;;;;;13.80;5.43;;;64.70;2201.60;;;;;;4898152;29;20036;-87
2022/01/24 04:59:27;;;;;;;13.02;6.05;;;64.70;2201.60;;;;;;4898205;29;20024;-76
2022/01/24 05:01:52;;;;;;;;;;;64.70;2201.60;;;;;;4898239;29;20028;-82
2022/01/24 05:04:18;;;;;;;16.95;6.32;;;64.90;2201.60;;;;;;4897706;29;20249;-87
2022/01/24 05:06:43;;;;;;;;;;;64.90;2201.60;;;;;;4881627;29;20044;-81
2022/01/24 05:09:09;;;;;;;13.80;6.40;;;89.70;2176.00;;;;;;4897909;29;19911;-88
2022/01/24 05:11:46;;;;;;;;;;;89.60;2201.60;;;;;;4898464;29;20032;-81
2022/01/24 05:25:09;;;;;;;14.57;6.45;;;64.90;2201.60;;;;;;4901140;29;20043;-83
2022/01/24 05:27:34;;;;;;;;;;;64.90;2201.60;;;;;;4885216;29;20041;-81
2022/01/24 05:30:00;;;;;;;14.68;6.10;;;64.80;2201.60;;;;;;4901304;29;20365;-86
2022/01/24 05:32:25;;;;;;;;;;;89.60;2201.60;;;;;;4901881;29;20052;-86
2022/01/24 05:34:51;;;;;;;13.48;5.35;;;89.80;2176.00;;;;;;4884366;29;19911;-85
2022/01/24 05:37:17;;;;;;;;;;;89.70;2176.00;;;;;;4884451;29;20051;-76
2022/01/24 05:39:43;;;;;;;16.80;5.45;;;89.70;2176.00;;;;;;4901065;29;19949;-80
2022/01/24 05:42:08;;;;;;;;;;;89.80;2176.00;;;;;;4900494;29;20025;-87
2022/01/24 05:44:34;;;;;;;15.10;5.97;;;89.80;2176.00;;;;;;4901131;29;19911;-82
2022/01/24 05:47:00;;;;;;;;;;;89.80;2176.00;;;;;;4900167;29;20069;-81
2022/01/24 05:49:25;;;;;;;15.38;6.70;;;89.90;2176.00;;;;;;4884466;29;19935;-86
2022/01/24 05:51:51;;;;;;;;;;;89.80;2176.00;;;;;;4901086;29;20478;-88
2022/01/24 05:54:17;;;;;;;13.20;6.28;;;89.90;2176.00;;;;;;4900931;29;19914;-84
2022/01/24 05:56:42;;;;;;;;;;;89.90;2176.00;;;;;;4901040;29;20036;-86
2022/01/24 05:59:08;;;;;;;13.68;5.90;;;89.70;2176.00;;;;;;4884478;29;19922;-89
2022/01/24 06:01:33;;;;;;;;;;;89.80;2176.00;;;;;;4901117;29;20549;-82
2022/01/24 06:03:59;;;;;;;17.27;6.22;;;89.90;2176.00;;;;;;4900884;29;19963;-77
2022/01/24 06:06:25;;;;;;;;;;;90.00;2176.00;;;;;;4901023;29;20389;-88
2022/01/24 06:08:50;;;;;;;15.52;6.72;;;90.20;2176.00;;;;;;4900547;29;19918;-85
2022/01/24 06:11:17;;;;;;;;;;;90.00;2176.00;;;;;;4901192;29;20032;-79
2022/01/24 06:13:45;;;;;;;14.77;5.55;;;89.90;2176.00;;;;;;4884027;29;19970;-81
2022/01/24 06:16:11;;;;;;;17.63;7.18;;;89.90;2176.00;;;;;;4900729;29;20067;-86
2022/01/24 06:18:36;;;;;;;;;;;89.80;2176.00;;;;;;4900977;29;20032;-84
2022/01/24 06:21:02;;;;;;;16.10;7.65;;;89.90;2176.00;;;;;;4900628;29;20332;-85
2022/01/24 06:23:28;;;;;;;;;;;90.00;2176.00;;;;;;4883926;29;20036;-85
2022/01/24 06:25:53;;;;;;;17.63;6.82;;;90.10;2176.00;;;;;;4900489;29;19907;-80
2022/01/24 06:28:19;;;;;;;;;;;90.10;2176.00;;;;;;4899754;29;20033;-83
2022/01/24 06:30:45;;;;;;;16.95;7.10;;;90.10;2176.00;;;;;;4900580;29;19998;-84
2022/01/24 06:33:10;;;;;;;;;;;90.10;2176.00;;;;;;4900694;29;20056;-85
2022/01/24 06:35:36;;;;;;;17.52;7.15;;;90.20;2176.00;;;;;;4900065;29;20371;-81
2022/01/24 06:38:02;;;;;;;;;;;90.20;2176.00;;;;;;4900140;29;20053;-87
2022/01/24 06:40:28;;;;;;;18.10;8.18;;;90.00;2176.00;;;;;;4899734;29;19923;-76
2022/01/24 06:42:53;;;;;;;;;;;89.90;2176.00;;;;;;4900445;29;20474;-83
2022/01/24 06:45:19;;;;;;;21.02;8.27;;;89.90;2176.00;;;;;;4899590;29;19959;-87
2022/01/24 06:47:45;;;;;;;;;;;89.90;2176.00;;;;;;4900433;29;20095;-85
2022/01/24 06:50:11;;;;;;;16.52;7.78;;;89.90;2176.00;;;;;;4899877;29;19915;-82
2022/01/24 06:52:36;;;;;;;;;;;90.00;2176.00;;;;;;4900176;29;20056;-81
2022/01/24 06:55:03;;;;;;;18.17;7.05;;;90.10;2176.00;;;;;;4899711;29;19939;-86
2022/01/24 06:57:29;;;;;;;19.08;8.93;;;90.30;2176.00;;;;;;4899916;29;20053;-85
2022/01/24 06:59:55;;;;;;;;;;;90.10;2176.00;;;;;;4900105;29;20517;-83
2022/01/24 07:02:20;;;;;;;18.52;8.25;;;90.10;2176.00;;;;;;4899427;29;20254;-82
2022/01/24 07:04:46;;;;;;;;;;;90.00;2176.00;;;;;;4900168;29;20035;-85
2022/01/24 07:07:13;;;;;;;17.13;8.02;;;90.00;2176.00;;;;;;4899350;29;19907;-89
2022/01/24 07:09:40;;;;;;;19.15;9.27;;;89.90;2176.00;;;;;;4899504;29;20052;-85
2022/01/24 07:12:07;;;;;;;18.35;8.48;;;89.80;2176.00;;;;;;4882415;29;20635;-84
2022/01/24 07:14:34;;;;;;;21.38;8.15;;;89.90;2176.00;;;;;;4899256;29;20028;-83
2022/01/24 07:17:34;;;;;;;17.48;8.50;;;89.90;2176.00;;;;;;4899094;29;20565;-83
2022/01/24 07:19:59;;;;;;;18.92;8.35;;;89.70;2176.00;;;;;;4882477;29;20541;-81
2022/01/24 07:22:25;;;;;;;;;;;89.70;2176.00;;;;;;4899408;29;20100;-83
2022/01/24 07:24:51;;;;;;;23.80;7.95;;;89.60;2201.60;;;;;;4899247;29;20258;-87
2022/01/24 07:27:16;;;;;;;;;;;89.60;2201.60;;;;;;4899771;29;20140;-86
2022/01/24 07:29:42;;;;;;;18.60;7.40;;;64.80;2201.60;;;;;;4898799;29;20348;-86
2022/01/24 07:32:08;;;;;;;;;;;64.90;2201.60;;;;;;4899582;29;20029;-87
2022/01/24 07:34:34;;;;;;;19.02;7.97;;;64.90;2201.60;;;;;;4882043;29;20142;-83
2022/01/24 07:37:00;;;;;;;22.77;9.55;;;64.80;2201.60;;;;;;4882036;29;20107;-82
2022/01/24 07:39:26;;;;;;;;;;;64.60;2201.60;;;;;;4898788;29;20148;-85
2022/01/24 07:41:52;;;;;;;26.98;9.32;;;64.50;2201.60;;;;;;4898671;29;19915;-83
2022/01/24 07:44:22;;;;;;;24.55;9.95;;;64.40;2201.60;;;;;;4898880;29;20021;-84
2022/01/24 07:46:49;;;;;;;18.15;8.63;;;64.60;2201.60;;;;;;4898633;29;20031;-83
2022/01/24 07:49:15;;;;;;;24.02;9.15;;;64.40;2201.60;;;;;;4898699;29;20106;-81
2022/01/24 07:51:40;;;;;;;;;;;64.40;2201.60;;;;;;4898859;29;20028;-82
2022/01/24 07:54:08;;;;;;;19.30;9.48;;;64.20;2201.60;;;;;;4898626;29;19907;-86
2022/01/24 07:56:34;;;;;;;29.27;11.57;;;64.30;2201.60;;;;;;4898471;29;20027;-86
2022/01/24 07:58:59;;;;;;;;;;;64.50;2201.60;;;;;;4898986;29;20033;-87
2022/01/24 08:01:26;;;;;;;29.73;13.10;;;64.40;2201.60;;;;;;4881686;29;19911;-87
2022/01/24 08:03:52;;;;;;;22.02;10.73;;;64.20;2201.60;;;;;;4882025;29;20613;-89
2022/01/24 08:06:18;;;;;;;22.40;10.48;;;64.60;2201.60;;;;;;4881806;29;20032;-87
2022/01/24 08:08:44;;;;;;;;;;;64.20;2201.60;;;;;;4898634;29;20043;-80
2022/01/24 08:11:11;;;;;;;29.48;11.82;;;64.30;2201.60;;;;;;4898583;29;19918;-81
2022/01/24 08:13:37;;;;;;;25.90;10.73;;;64.10;2201.60;;;;;;4898078;29;20031;-87
2022/01/24 08:16:03;;;;;;;;;;;64.10;2201.60;;;;;;4898837;29;20025;-75
2022/01/24 08:18:29;;;;;;;23.42;9.88;;;64.00;2201.60;;;;;;4898350;29;19911;-89
2022/01/24 08:20:54;;;;;;;;;;;39.30;2201.60;;;;;;4882246;29;20520;-87
2022/01/24 08:23:21;;;;;;;21.70;10.50;;;64.00;2201.60;;;;;;4881171;29;19955;-83
2022/01/24 08:25:46;;;;;;;23.60;8.90;;;39.30;2201.60;;;;;;4898216;29;20024;-75
2022/01/24 08:28:12;;;;;;;;;;;39.30;2201.60;;;;;;4882152;29;20548;-78
2022/01/24 08:30:38;;;;;;;22.10;10.73;;;39.30;2201.60;;;;;;4898096;29;19907;-83
2022/01/24 08:33:05;;;;;;;;;;;39.20;2201.60;;;;;;4898857;29;20095;-82
2022/01/24 08:35:31;;;;;;;20.65;9.30;;;39.20;2201.60;;;;;;4898162;29;20369;-85
2022/01/24 08:37:57;;;;;;;26.77;10.10;;;39.20;2201.60;;;;;;4897810;29;20493;-77
2022/01/24 08:40:26;;;;;;;;;;;39.10;2201.60;;;;;;4881635;29;20040;-84
2022/01/24 08:43:03;;;;;;;22.38;9.80;;;39.30;2201.60;;;;;;4881647;29;19996;-79
2022/01/24 08:48:07;;;;;;;20.48;9.68;;;39.10;2201.60;;;;;;4897518;29;20164;-76
2022/01/24 08:50:33;;;;;;;;;;;39.00;2201.60;;;;;;4897972;29;20099;-83
2022/01/24 08:52:59;;;;;;;28.58;10.82;;;38.90;2201.60;;;;;;4901050;29;20059;-78
2022/01/24 08:55:28;;;;;;;;;;;38.80;2201.60;;;;;;4902047;29;20514;-75
2022/01/24 08:57:56;;;;;;;22.52;9.57;;;38.80;2201.60;;;;;;4906538;29;20458;-78
2022/01/24 09:00:22;;;;;;;24.25;10.07;;;38.80;2201.60;;;;;;4893809;29;20043;-75
2022/01/24 09:02:49;;;;;;;29.08;12.68;;;38.90;2201.60;;;;;;4892607;29;20032;-85
2022/01/24 09:05:17;;;;;;;24.70;11.30;;;38.70;2201.60;;;;;;4910731;29;20031;-77
2022/01/24 09:07:43;;;;;;;29.27;11.57;;;38.50;2201.60;;;;;;4910979;29;20028;-83
2022/01/24 09:10:11;;;;;;;22.58;10.38;;;38.40;2201.60;;;;;;4909121;29;20020;-88
2022/01/24 09:12:37;;;;;;;24.52;9.57;;;38.50;2201.60;;;;;;4909429;29;20103;-83
2022/01/24 09:15:03;;;;;;;;;;;38.50;2201.60;;;;;;4909240;29;20469;-87
2022/01/24 09:17:29;;;;;;;18.13;8.43;;;13.70;2201.60;;;;;;4908859;29;20383;-75
2022/01/24 09:19:56;;;;;;;22.10;10.43;;;13.70;2201.60;;;;;;4900591;29;20108;-79
2022/01/24 09:22:22;;;;;;;22.40;11.10;;;38.40;2201.60;;;;;;4901367;29;20028;-75
2022/01/24 09:24:47;;;;;;;;;;;13.70;2201.60;;;;;;4909287;29;20506;-80
2022/01/24 09:27:15;;;;;;;21.67;9.65;;;13.40;2201.60;;;;;;4901376;29;19911;-86
2022/01/24 09:29:40;;;;;;;20.92;9.57;;;13.20;2201.60;;;;;;4889292;29;20078;-93
2022/01/24 09:32:06;;;;;;;;;;;13.30;2201.60;;;;;;4911327;29;20020;-80
2022/01/24 09:34:32;;;;;;;21.90;10.50;;;13.10;2201.60;;;;;;4893473;29;19946;-85
2022/01/24 09:36:58;;;;;;;;;;;12.90;2201.60;;;;;;4909274;29;20034;-74
2022/01/24 09:39:24;;;;;;;22.92;9.90;;;0.10;2201.60;;;;;;4911363;29;20007;-87
2022/01/24 09:41:51;;;;;;;24.02;10.38;;;0.20;2201.60;;;;;;4908572;29;20081;-86
2022/01/24 09:44:17;;;;;;;28.00;11.20;;;0.40;2176.00;;;;;;4914330;29;20442;-89
2022/01/24 09:46:44;;;;;;;;;;;0.50;2124.80;;;;;;4919938;29;20107;-75
2022/01/24 09:49:10;;;;;;;22.55;9.85;;;0.70;2124.80;;;;;;4919725;29;19914;-89
2022/01/24 09:51:37;;;;;;;22.27;10.57;;;0.80;2099.20;;;;;;4919142;29;20036;-76
2022/01/24 09:54:05;;;;;;;18.75;9.98;;;0.80;2073.60;;;;;;4919446;29;20035;-86
2022/01/24 09:56:31;;;;;;;21.92;11.60;;;0.90;2073.60;;;;;;4916030;29;20370;-75
2022/01/24 09:58:57;;;;;;;;;;;25.80;2073.60;;;;;;4909132;29;20473;-75
2022/01/24 10:01:23;;;;;;;22.38;10.07;;;25.90;2048.00;;;;;;4908915;29;19911;-85
2022/01/24 10:04:09;;;;;;;;;;;26.00;2022.40;;;;;;4910746;29;20020;-86
2022/01/24 10:07:12;;;;;;;26.85;11.13;;;26.20;2022.40;;;;;;4911696;29;20395;-76
2022/01/24 10:09:39;;;;;;;23.33;10.88;;;26.50;1945.60;;;;;;4900520;29;20036;-86
2022/01/24 10:12:19;;;;;;;24.02;10.35;;;26.40;1945.60;;;;;;4910177;29;20529;-84
2022/01/24 10:17:33;;;;;;;28.52;13.55;;;26.50;1945.60;;;;;;4913221;29;20036;-85
2022/01/24 10:20:23;;;;;;;23.77;12.15;;;51.20;1971.20;;;;;;4909144;29;20359;-82
2022/01/24 10:23:17;;;;;;;28.02;12.15;;;51.40;1945.60;;;;;;4911245;29;20032;-79
2022/01/24 10:25:59;;;;;;;24.23;11.43;;;51.40;1920.00;;;;;;4908798;29;20027;-84
2022/01/24 10:28:33;;;;;;;21.20;11.02;;;51.60;1894.40;;;;;;4909099;29;20063;-77
2022/01/24 10:31:05;;;;;;;24.85;10.90;;;51.90;1920.00;;;;;;4909963;29;20028;-78
2022/01/24 10:33:31;;;;;;;24.55;11.35;;;51.80;1868.80;;;;;;4907195;29;20024;-75
2022/01/24 10:35:57;;;;;;;23.25;10.68;;;76.80;1868.80;;;;;;4908047;29;20354;-83
2022/01/24 10:40:55;;;;;;;20.13;8.88;;;77.10;1817.60;;;;;;4908285;29;19974;-82
2022/01/24 10:43:24;;;;;;;26.20;11.48;;;77.20;1817.60;;;;;;4909637;29;20037;-83
2022/01/24 10:45:51;;;;;;;20.92;10.27;;;77.60;1817.60;;;;;;4914686;29;20048;-80
2022/01/24 10:48:22;;;;;;;25.85;11.95;;;77.70;1792.00;;;;;;4915114;29;20485;-76
2022/01/24 10:50:48;;;;;;;30.95;12.75;;;77.60;1792.00;;;;;;4908471;29;20028;-84
2022/01/24 10:53:15;;;;;;;27.08;12.55;;;77.70;1792.00;;;;;;4910258;29;20482;-82
2022/01/24 10:55:43;;;;;;;19.65;11.57;;;102.40;1792.00;;;;;;4910106;29;20020;-81
2022/01/24 10:58:18;;;;;;;23.30;11.50;;;102.70;1766.40;;;;;;4911543;29;20112;-82
2022/01/24 11:00:45;;;;;;;23.30;12.32;;;102.60;1740.80;;;;;;4909070;29;20533;-82
2022/01/24 11:03:17;;;;;;;23.63;11.70;;;102.80;1740.80;;;;;;4907034;29;20012;-77
2022/01/24 11:05:44;;;;;;;25.08;11.48;;;103.00;1715.20;;;;;;4882640;29;20036;-78
2022/01/24 11:08:15;;;;;;;45.58;19.27;;;103.00;1715.20;;;;;;4901029;29;20107;-78
2022/01/24 11:10:44;;;;;;;48.67;20.42;;;103.10;1689.60;;;;;;4907054;29;20020;-82
2022/01/24 11:13:11;;;;;;;94.30;38.03;;;103.20;1689.60;;;;;;4909670;29;20039;-79
2022/01/24 11:15:44;;;;;;;31.30;15.30;;;103.20;1664.00;;;;;;4909189;29;20031;-78
2022/01/24 11:18:15;;;;;;;23.88;12.13;;;128.10;1689.60;;;;;;4917629;29;20024;-78
2022/01/24 11:20:45;;;;;;;41.67;21.42;;;128.20;1664.00;;;;;;4917846;29;20111;-81
2022/01/24 11:23:12;;;;;;;27.50;14.52;;;128.20;1664.00;;;;;;4907994;29;20491;-81
2022/01/24 11:25:43;;;;;;;32.78;16.67;;;128.20;1664.00;;;;;;4906984;29;20032;-77
2022/01/24 11:28:10;;;;;;;22.85;10.98;;;128.40;1638.40;;;;;;4908265;29;20024;-77
2022/01/24 11:31:01;;;;;;;30.50;14.48;;;128.30;1638.40;;;;;;4911171;29;20031;-80
2022/01/24 11:33:35;;;;;;;26.02;12.05;;;128.40;1638.40;;;;;;4907061;29;20016;-82
2022/01/24 11:36:04;;;;;;;20.25;9.98;;;128.40;1638.40;;;;;;4906979;29;20025;-74
2022/01/24 11:38:37;;;;;;;34.90;15.55;;;128.00;1638.40;;;;;;4907452;29;20120;-77
2022/01/24 11:41:04;;;;;;;22.65;11.07;;;128.40;1638.40;;;;;;4908386;29;20385;-74
2022/01/24 11:43:38;;;;;;;22.70;11.20;;;128.40;1612.80;;;;;;4891342;29;20131;-81
2022/01/24 11:46:25;;;;;;;29.83;12.07;;;128.50;1612.80;;;;;;4908601;29;20035;-82
2022/01/24 11:49:06;;;;;;;30.25;11.25;;;128.60;1612.80;;;;;;4908340;29;20544;-78
2022/01/24 11:51:33;;;;;;;22.73;11.02;;;128.60;1612.80;;;;;;4908748;29;20024;-84
2022/01/24 11:53:59;;;;;;;23.48;12.90;;;128.50;1587.20;;;;;;4908318;29;20033;-79
2022/01/24 11:56:28;;;;;;;30.20;12.63;;;128.60;1612.80;;;;;;4908472;29;20111;-80
2022/01/24 11:59:18;;;;;;;20.25;11.38;;;128.60;1587.20;;;;;;4908168;29;20532;-77
2022/01/24 12:01:45;;;;;;;21.52;10.27;;;128.80;1587.20;;;;;;4907940;29;20025;-75
2022/01/24 12:04:11;;;;;;;21.42;11.25;;;128.70;1587.20;;;;;;4907434;29;20024;-75
2022/01/24 12:07:20;;;;;;;21.75;11.68;;;128.50;1561.60;;;;;;4906103;29;20595;-80
2022/01/24 12:09:46;;;;;;;22.92;10.98;;;128.50;1561.60;;;;;;4898733;29;20135;-77
2022/01/24 12:12:50;;;;;;;23.35;11.57;;;128.50;1587.20;;;;;;4908865;29;20020;-78
2022/01/24 12:15:38;;;;;;;23.45;10.50;;;128.60;1587.20;;;;;;4891528;29;20016;-78
2022/01/24 12:18:23;;;;;;;24.45;10.70;;;128.40;1561.60;;;;;;4912625;29;20031;-78
2022/01/24 12:20:55;;;;;;;19.48;10.30;;;128.40;1587.20;;;;;;4891455;29;20040;-79
2022/01/24 12:23:24;;;;;;;21.98;10.30;;;128.30;1587.20;;;;;;4903829;29;20029;-75
2022/01/24 12:25:54;;;;;;;20.90;11.82;;;128.40;1612.80;;;;;;4901649;29;20025;-77
2022/01/24 12:28:25;;;;;;;21.08;10.27;;;128.40;1612.80;;;;;;4903229;29;20111;-75
2022/01/24 12:31:03;;;;;;;22.23;11.90;;;128.30;1612.80;;;;;;4908797;29;20020;-83
2022/01/24 12:33:32;;;;;;;22.60;10.00;;;128.30;1612.80;;;;;;4909333;29;20028;-76
2022/01/24 12:35:57;;;;;;;18.63;10.02;;;128.30;1612.80;;;;;;4916197;29;20016;-80
2022/01/24 12:38:23;;;;;;;46.67;21.67;;;128.10;1612.80;;;;;;4904886;29;20524;-81
2022/01/24 12:41:09;;;;;;;;;;;103.30;1587.20;;;;;;4907103;29;20127;-80
2022/01/24 12:43:52;;;;;;;28.80;13.70;;;103.10;1587.20;;;;;;4910513;29;19911;-78
2022/01/24 12:46:25;;;;;;;23.10;11.82;;;102.70;1638.40;;;;;;4908146;29;20036;-81
2022/01/24 12:48:53;;;;;;;20.67;11.30;;;102.60;1664.00;;;;;;4905766;29;20025;-77
2022/01/24 12:51:21;;;;;;;23.20;11.27;;;102.60;1689.60;;;;;;4888651;29;20096;-79
2022/01/24 12:53:49;;;;;;;19.25;10.50;;;102.70;1689.60;;;;;;4914527;29;20024;-81
2022/01/24 12:56:18;;;;;;;32.72;13.20;;;102.80;1664.00;;;;;;4916640;29;20039;-74
2022/01/24 12:58:46;;;;;;;37.97;17.50;;;102.70;1664.00;;;;;;4916480;29;20065;-81
2022/01/24 13:01:25;;;;;;;22.85;11.48;;;102.70;1689.60;;;;;;4899760;29;20176;-75
2022/01/24 13:03:59;;;;;;;27.58;13.90;;;102.60;1715.20;;;;;;4916496;29;20024;-74
2022/01/24 13:06:28;;;;;;;32.58;14.65;;;102.50;1715.20;;;;;;4916442;29;20157;-77
2022/01/24 13:09:14;;;;;;;22.02;11.23;;;77.70;1766.40;;;;;;4916147;29;20500;-83
2022/01/24 13:11:54;;;;;;;17.48;9.00;;;77.70;1817.60;;;;;;4916429;29;20123;-75
2022/01/24 13:14:34;;;;;;;17.85;11.00;;;77.70;1843.20;;;;;;4916347;29;20374;-75
2022/01/24 13:23:01;;;;;;;72.35;27.58;;;77.40;1894.40;;;;;;4916662;29;20039;-79
2022/01/24 13:25:30;;;;;;;43.22;18.90;;;77.40;1894.40;;;;;;4916297;29;20032;-79
2022/01/24 13:27:58;;;;;;;21.98;11.77;;;77.40;1920.00;;;;;;4916183;29;20048;-79
2022/01/24 13:30:38;;;;;;;31.17;16.00;;;77.40;1894.40;;;;;;4915964;29;20028;-82
2022/01/24 13:33:12;;;;;;;54.00;23.67;;;77.50;1894.40;;;;;;4905979;29;20497;-82
2022/01/24 13:35:52;;;;;;;52.50;24.17;;;77.40;1894.40;;;;;;4890656;29;20096;-75
2022/01/24 13:38:30;;;;;;;31.30;15.13;;;77.50;1920.00;;;;;;4901624;29;20041;-80
2022/01/24 13:41:11;;;;;;;52.33;21.17;;;77.40;1945.60;;;;;;4908777;29;20408;-82
2022/01/24 13:43:41;;;;;;;67.05;27.35;;;77.30;1945.60;;;;;;4911020;29;20024;-80
2022/01/24 13:46:10;;;;;;;95.22;36.95;;;77.10;1971.20;;;;;;4906846;29;20035;-78
2022/01/24 13:49:00;;;;;;;50.13;20.77;;;77.30;1971.20;;;;;;4908808;29;20024;-82
2022/01/24 13:51:36;;;;;;;47.55;19.50;;;77.40;1945.60;;;;;;4824249;29;20046;-77
2022/01/24 13:54:05;;;;;;;36.13;13.10;;;77.30;1945.60;;;;;;4824036;29;20039;-83
2022/01/24 13:56:40;;;;;;;32.65;15.07;;;77.20;1945.60;;;;;;4823935;29;20073;-76
2022/01/24 13:59:13;;;;;;;69.72;27.38;;;77.20;1945.60;;;;;;4822290;29;20034;-80
2022/01/24 14:02:01;;;;;;;64.63;23.50;;;77.20;1945.60;;;;;;4823778;29;20038;-83
2022/01/24 14:04:53;;;;;;;43.63;17.75;;;77.20;1971.20;;;;;;4824544;29;20023;-78
2022/01/24 14:07:21;;;;;;;27.58;12.70;;;77.20;1971.20;;;;;;4824472;29;20568;-74
2022/01/24 14:09:57;;;;;;;41.90;20.45;;;77.00;1971.20;;;;;;4823941;29;20046;-77
2022/01/24 14:12:36;;;;;;;62.85;27.55;;;76.80;2022.40;;;;;;4823972;29;20040;-82
2022/01/24 14:15:10;;;;;;;37.13;16.08;;;76.90;2022.40;;;;;;4823801;29;20085;-75
2022/01/24 14:20:16;;;;;;;21.55;11.85;;;77.00;1996.80;;;;;;4824254;29;20022;-78
2022/01/24 14:22:51;;;;;;;25.83;12.07;;;77.00;1971.20;;;;;;4824323;29;20654;-81
2022/01/24 14:25:23;;;;;;;22.33;11.57;;;77.00;1971.20;;;;;;4824087;29;20039;-75
2022/01/24 14:27:51;;;;;;;27.05;13.38;;;77.00;1996.80;;;;;;4847976;29;20037;-77
2022/01/24 14:30:19;;;;;;;24.27;13.00;;;77.00;1996.80;;;;;;4908744;29;20537;-85
2022/01/24 14:33:44;;;;;;;26.13;14.07;;;77.00;1971.20;;;;;;4893298;29;20036;-74
2022/01/24 14:36:17;;;;;;;29.08;14.20;;;77.00;1971.20;;;;;;4834887;29;20039;-86
2022/01/24 14:38:53;;;;;;;31.20;15.30;;;77.00;1971.20;;;;;;4836861;29;20054;-77
2022/01/24 14:41:22;;;;;;;34.05;17.55;;;77.00;1971.20;;;;;;4841303;29;20040;-81
2022/01/24 14:46:39;;;;;;;36.70;18.98;;;77.00;1971.20;;;;;;4841761;29;20098;-82